sensor_id;sensor_type;location;lat;lon;timestamp;temperature;humidity
8459;DHT22;4266;48.816;9.154;2024-02-23T00:00:33;6.00;93.30
8459;DHT22;4266;48.816;9.154;2024-02-23T00:02:59;6.00;93.10
8459;DHT22;4266;48.816;9.154;2024-02-23T00:05:25;6.00;92.70
8459;DHT22;4266;48.816;9.154;2024-02-23T00:07:51;6.00;92.80
8459;DHT22;4266;48.816;9.154;2024-02-23T00:10:16;6.00;93.30
8459;DHT22;4266;48.816;9.154;2024-02-23T00:12:42;6.00;93.40
8459;DHT22;4266;48.816;9.154;2024-02-23T00:15:09;5.90;93.40
8459;DHT22;4266;48.816;9.154;2024-02-23T00:17:34;5.90;93.80
8459;DHT22;4266;48.816;9.154;2024-02-23T00:20:00;6.00;93.50
8459;DHT22;4266;48.816;9.154;2024-02-23T00:22:26;6.10;92.90
8459;DHT22;4266;48.816;9.154;2024-02-23T00:24:52;6.00;93.30
8459;DHT22;4266;48.816;9.154;2024-02-23T00:27:17;6.00;93.00
8459;DHT22;4266;48.816;9.154;2024-02-23T00:29:43;6.00;93.00
8459;DHT22;4266;48.816;9.154;2024-02-23T00:32:09;6.00;92.30
8459;DHT22;4266;48.816;9.154;2024-02-23T00:34:35;6.00;92.30
8459;DHT22;4266;48.816;9.154;2024-02-23T00:37:00;6.00;92.20
8459;DHT22;4266;48.816;9.154;2024-02-23T00:39:26;6.00;92.00
8459;DHT22;4266;48.816;9.154;2024-02-23T00:41:52;6.00;92.20
8459;DHT22;4266;48.816;9.154;2024-02-23T00:44:18;6.00;92.30
8459;DHT22;4266;48.816;9.154;2024-02-23T00:46:44;6.00;92.30
8459;DHT22;4266;48.816;9.154;2024-02-23T00:49:10;6.10;91.70
8459;DHT22;4266;48.816;9.154;2024-02-23T00:51:36;6.00;91.60
8459;DHT22;4266;48.816;9.154;2024-02-23T00:54:01;6.10;91.60
8459;DHT22;4266;48.816;9.154;2024-02-23T00:56:27;6.00;92.00
8459;DHT22;4266;48.816;9.154;2024-02-23T00:58:53;6.00;92.20
8459;DHT22;4266;48.816;9.154;2024-02-23T01:01:19;6.00;92.10
8459;DHT22;4266;48.816;9.154;2024-02-23T01:03:45;6.10;91.60
8459;DHT22;4266;48.816;9.154;2024-02-23T01:06:10;6.00;91.50
8459;DHT22;4266;48.816;9.154;2024-02-23T01:08:36;6.00;91.90
8459;DHT22;4266;48.816;9.154;2024-02-23T01:11:02;6.00;91.70
8459;DHT22;4266;48.816;9.154;2024-02-23T01:13:28;6.00;91.60
8459;DHT22;4266;48.816;9.154;2024-02-23T01:15:53;6.00;91.60
8459;DHT22;4266;48.816;9.154;2024-02-23T01:18:19;5.90;91.90
8459;DHT22;4266;48.816;9.154;2024-02-23T01:20:45;6.00;91.50
8459;DHT22;4266;48.816;9.154;2024-02-23T01:23:10;6.00;92.00
8459;DHT22;4266;48.816;9.154;2024-02-23T01:25:37;6.10;92.00
8459;DHT22;4266;48.816;9.154;2024-02-23T01:28:03;6.00;91.80
8459;DHT22;4266;48.816;9.154;2024-02-23T01:30:28;6.00;91.90
8459;DHT22;4266;48.816;9.154;2024-02-23T01:32:54;6.00;92.30
8459;DHT22;4266;48.816;9.154;2024-02-23T01:35:20;6.00;92.50
8459;DHT22;4266;48.816;9.154;2024-02-23T01:37:46;5.90;92.50
8459;DHT22;4266;48.816;9.154;2024-02-23T01:40:11;5.90;92.70
8459;DHT22;4266;48.816;9.154;2024-02-23T01:42:37;5.90;93.00
8459;DHT22;4266;48.816;9.154;2024-02-23T01:45:04;5.90;93.10
8459;DHT22;4266;48.816;9.154;2024-02-23T01:47:30;5.90;93.00
8459;DHT22;4266;48.816;9.154;2024-02-23T01:49:56;5.90;93.00
8459;DHT22;4266;48.816;9.154;2024-02-23T01:52:21;6.00;93.10
8459;DHT22;4266;48.816;9.154;2024-02-23T01:54:47;6.00;93.20
8459;DHT22;4266;48.816;9.154;2024-02-23T01:57:13;6.00;93.10
8459;DHT22;4266;48.816;9.154;2024-02-23T01:59:39;6.00;92.80
8459;DHT22;4266;48.816;9.154;2024-02-23T02:02:04;6.00;92.80
8459;DHT22;4266;48.816;9.154;2024-02-23T02:04:30;6.00;92.60
8459;DHT22;4266;48.816;9.154;2024-02-23T02:06:56;6.00;92.80
8459;DHT22;4266;48.816;9.154;2024-02-23T02:09:22;6.10;92.30
8459;DHT22;4266;48.816;9.154;2024-02-23T02:11:49;6.10;92.40
8459;DHT22;4266;48.816;9.154;2024-02-23T02:14:16;6.10;92.50
8459;DHT22;4266;48.816;9.154;2024-02-23T02:16:42;6.00;93.10
8459;DHT22;4266;48.816;9.154;2024-02-23T02:19:08;6.00;93.10
8459;DHT22;4266;48.816;9.154;2024-02-23T02:21:33;6.10;93.00
8459;DHT22;4266;48.816;9.154;2024-02-23T02:23:59;6.10;92.90
8459;DHT22;4266;48.816;9.154;2024-02-23T02:26:26;6.20;92.70
8459;DHT22;4266;48.816;9.154;2024-02-23T02:28:52;6.10;92.90
8459;DHT22;4266;48.816;9.154;2024-02-23T02:31:18;6.10;92.80
8459;DHT22;4266;48.816;9.154;2024-02-23T02:33:44;6.10;92.30
8459;DHT22;4266;48.816;9.154;2024-02-23T02:36:10;6.10;92.30
8459;DHT22;4266;48.816;9.154;2024-02-23T02:38:35;6.10;92.50
8459;DHT22;4266;48.816;9.154;2024-02-23T02:41:01;6.10;92.30
8459;DHT22;4266;48.816;9.154;2024-02-23T02:43:27;6.10;92.50
8459;DHT22;4266;48.816;9.154;2024-02-23T02:45:53;6.00;92.10
8459;DHT22;4266;48.816;9.154;2024-02-23T02:48:19;6.00;92.10
8459;DHT22;4266;48.816;9.154;2024-02-23T02:50:45;5.90;92.10
8459;DHT22;4266;48.816;9.154;2024-02-23T02:53:10;5.90;92.40
8459;DHT22;4266;48.816;9.154;2024-02-23T02:55:36;5.90;92.50
8459;DHT22;4266;48.816;9.154;2024-02-23T02:58:03;5.90;91.90
8459;DHT22;4266;48.816;9.154;2024-02-23T03:00:28;5.90;91.90
8459;DHT22;4266;48.816;9.154;2024-02-23T03:02:54;5.80;91.50
8459;DHT22;4266;48.816;9.154;2024-02-23T03:05:20;5.80;91.80
8459;DHT22;4266;48.816;9.154;2024-02-23T03:07:45;5.80;91.10
8459;DHT22;4266;48.816;9.154;2024-02-23T03:10:11;5.80;91.30
8459;DHT22;4266;48.816;9.154;2024-02-23T03:12:37;5.80;91.00
8459;DHT22;4266;48.816;9.154;2024-02-23T03:15:04;5.80;90.90
8459;DHT22;4266;48.816;9.154;2024-02-23T03:17:31;5.70;90.50
8459;DHT22;4266;48.816;9.154;2024-02-23T03:19:56;5.70;90.30
8459;DHT22;4266;48.816;9.154;2024-02-23T03:22:22;5.70;90.60
8459;DHT22;4266;48.816;9.154;2024-02-23T03:24:48;5.60;90.70
8459;DHT22;4266;48.816;9.154;2024-02-23T03:27:14;5.70;90.60
8459;DHT22;4266;48.816;9.154;2024-02-23T03:29:40;5.70;90.60
8459;DHT22;4266;48.816;9.154;2024-02-23T03:32:06;5.70;89.00
8459;DHT22;4266;48.816;9.154;2024-02-23T03:34:32;5.60;88.50
8459;DHT22;4266;48.816;9.154;2024-02-23T03:36:58;5.60;87.70
8459;DHT22;4266;48.816;9.154;2024-02-23T03:39:24;5.60;87.70
8459;DHT22;4266;48.816;9.154;2024-02-23T03:41:49;5.60;88.10
8459;DHT22;4266;48.816;9.154;2024-02-23T03:44:15;5.60;88.70
8459;DHT22;4266;48.816;9.154;2024-02-23T03:46:41;5.70;87.20
8459;DHT22;4266;48.816;9.154;2024-02-23T03:49:14;5.70;86.00
8459;DHT22;4266;48.816;9.154;2024-02-23T03:51:39;5.60;85.90
8459;DHT22;4266;48.816;9.154;2024-02-23T03:54:05;5.60;85.50
8459;DHT22;4266;48.816;9.154;2024-02-23T03:56:38;5.50;85.90
8459;DHT22;4266;48.816;9.154;2024-02-23T03:59:04;5.50;85.80
8459;DHT22;4266;48.816;9.154;2024-02-23T04:01:30;5.50;85.80
8459;DHT22;4266;48.816;9.154;2024-02-23T04:03:56;5.50;84.40
8459;DHT22;4266;48.816;9.154;2024-02-23T04:06:21;5.50;84.50
8459;DHT22;4266;48.816;9.154;2024-02-23T04:08:47;5.40;85.30
8459;DHT22;4266;48.816;9.154;2024-02-23T04:11:13;5.40;85.10
8459;DHT22;4266;48.816;9.154;2024-02-23T04:13:39;5.40;85.40
8459;DHT22;4266;48.816;9.154;2024-02-23T04:16:06;5.30;84.40
8459;DHT22;4266;48.816;9.154;2024-02-23T04:18:31;5.30;84.30
8459;DHT22;4266;48.816;9.154;2024-02-23T04:20:57;5.30;84.40
8459;DHT22;4266;48.816;9.154;2024-02-23T04:23:23;5.30;83.90
8459;DHT22;4266;48.816;9.154;2024-02-23T04:25:49;5.30;84.80
8459;DHT22;4266;48.816;9.154;2024-02-23T04:28:15;5.30;83.50
8459;DHT22;4266;48.816;9.154;2024-02-23T04:30:41;5.20;83.40
8459;DHT22;4266;48.816;9.154;2024-02-23T04:33:07;5.30;83.50
8459;DHT22;4266;48.816;9.154;2024-02-23T04:35:33;5.30;83.50
8459;DHT22;4266;48.816;9.154;2024-02-23T04:37:59;5.20;84.30
8459;DHT22;4266;48.816;9.154;2024-02-23T04:40:25;5.20;84.30
8459;DHT22;4266;48.816;9.154;2024-02-23T04:42:51;5.10;83.30
8459;DHT22;4266;48.816;9.154;2024-02-23T04:45:17;5.10;83.30
8459;DHT22;4266;48.816;9.154;2024-02-23T04:47:43;5.20;84.00
8459;DHT22;4266;48.816;9.154;2024-02-23T04:50:09;5.20;83.00
8459;DHT22;4266;48.816;9.154;2024-02-23T04:52:35;5.20;82.90
8459;DHT22;4266;48.816;9.154;2024-02-23T04:55:01;5.10;82.70
8459;DHT22;4266;48.816;9.154;2024-02-23T04:57:29;5.10;82.70
8459;DHT22;4266;48.816;9.154;2024-02-23T04:59:54;5.00;83.10
8459;DHT22;4266;48.816;9.154;2024-02-23T05:02:21;5.10;84.30
8459;DHT22;4266;48.816;9.154;2024-02-23T05:04:47;5.00;83.10
8459;DHT22;4266;48.816;9.154;2024-02-23T05:07:14;4.90;84.60
8459;DHT22;4266;48.816;9.154;2024-02-23T05:09:39;4.90;84.60
8459;DHT22;4266;48.816;9.154;2024-02-23T05:12:06;4.90;84.10
8459;DHT22;4266;48.816;9.154;2024-02-23T05:14:32;4.90;84.70
8459;DHT22;4266;48.816;9.154;2024-02-23T05:16:58;4.90;84.90
8459;DHT22;4266;48.816;9.154;2024-02-23T05:19:23;4.90;84.90
8459;DHT22;4266;48.816;9.154;2024-02-23T05:21:50;4.80;85.60
8459;DHT22;4266;48.816;9.154;2024-02-23T05:24:16;4.70;84.90
8459;DHT22;4266;48.816;9.154;2024-02-23T05:26:42;4.70;84.90
8459;DHT22;4266;48.816;9.154;2024-02-23T05:29:07;4.70;83.50
8459;DHT22;4266;48.816;9.154;2024-02-23T05:31:44;4.70;83.50
8459;DHT22;4266;48.816;9.154;2024-02-23T05:34:10;4.60;83.90
8459;DHT22;4266;48.816;9.154;2024-02-23T05:36:35;4.60;83.90
8459;DHT22;4266;48.816;9.154;2024-02-23T05:39:02;4.60;84.10
8459;DHT22;4266;48.816;9.154;2024-02-23T05:41:29;4.50;83.70
8459;DHT22;4266;48.816;9.154;2024-02-23T05:43:55;4.50;83.70
8459;DHT22;4266;48.816;9.154;2024-02-23T05:46:20;4.50;83.90
8459;DHT22;4266;48.816;9.154;2024-02-23T05:48:46;4.50;84.00
8459;DHT22;4266;48.816;9.154;2024-02-23T05:51:12;4.50;84.00
8459;DHT22;4266;48.816;9.154;2024-02-23T05:53:37;4.50;83.80
8459;DHT22;4266;48.816;9.154;2024-02-23T05:56:04;4.60;83.50
8459;DHT22;4266;48.816;9.154;2024-02-23T05:58:29;4.50;83.10
8459;DHT22;4266;48.816;9.154;2024-02-23T06:00:56;4.50;84.30
8459;DHT22;4266;48.816;9.154;2024-02-23T06:03:21;4.40;84.10
8459;DHT22;4266;48.816;9.154;2024-02-23T06:05:47;4.40;84.70
8459;DHT22;4266;48.816;9.154;2024-02-23T06:08:13;4.30;84.90
8459;DHT22;4266;48.816;9.154;2024-02-23T06:10:38;4.30;85.00
8459;DHT22;4266;48.816;9.154;2024-02-23T06:13:04;4.20;85.50
8459;DHT22;4266;48.816;9.154;2024-02-23T06:15:30;4.20;85.80
8459;DHT22;4266;48.816;9.154;2024-02-23T06:17:55;4.20;85.30
8459;DHT22;4266;48.816;9.154;2024-02-23T06:20:22;4.20;86.10
8459;DHT22;4266;48.816;9.154;2024-02-23T06:22:48;4.20;86.10
8459;DHT22;4266;48.816;9.154;2024-02-23T06:25:13;4.10;86.10
8459;DHT22;4266;48.816;9.154;2024-02-23T06:27:39;4.10;86.10
8459;DHT22;4266;48.816;9.154;2024-02-23T06:30:06;4.10;86.40
8459;DHT22;4266;48.816;9.154;2024-02-23T06:32:32;4.10;86.50
8459;DHT22;4266;48.816;9.154;2024-02-23T06:34:57;4.10;87.20
8459;DHT22;4266;48.816;9.154;2024-02-23T06:37:23;4.20;87.30
8459;DHT22;4266;48.816;9.154;2024-02-23T06:39:49;4.10;89.00
8459;DHT22;4266;48.816;9.154;2024-02-23T06:42:16;4.10;88.80
8459;DHT22;4266;48.816;9.154;2024-02-23T06:44:42;4.10;88.80
8459;DHT22;4266;48.816;9.154;2024-02-23T06:47:08;4.20;88.90
8459;DHT22;4266;48.816;9.154;2024-02-23T06:49:34;4.20;88.90
8459;DHT22;4266;48.816;9.154;2024-02-23T06:51:59;4.30;89.40
8459;DHT22;4266;48.816;9.154;2024-02-23T06:54:25;4.30;90.10
8459;DHT22;4266;48.816;9.154;2024-02-23T06:56:51;4.40;90.20
8459;DHT22;4266;48.816;9.154;2024-02-23T06:59:17;4.40;90.10
8459;DHT22;4266;48.816;9.154;2024-02-23T07:01:49;4.60;90.20
8459;DHT22;4266;48.816;9.154;2024-02-23T07:04:14;4.50;90.10
8459;DHT22;4266;48.816;9.154;2024-02-23T07:06:40;4.50;90.70
8459;DHT22;4266;48.816;9.154;2024-02-23T07:09:06;4.50;90.70
8459;DHT22;4266;48.816;9.154;2024-02-23T07:11:32;4.50;90.90
8459;DHT22;4266;48.816;9.154;2024-02-23T07:13:57;4.60;91.10
8459;DHT22;4266;48.816;9.154;2024-02-23T07:16:23;4.50;91.30
8459;DHT22;4266;48.816;9.154;2024-02-23T07:18:49;4.60;91.80
8459;DHT22;4266;48.816;9.154;2024-02-23T07:21:17;4.60;92.10
8459;DHT22;4266;48.816;9.154;2024-02-23T07:23:43;4.60;92.30
8459;DHT22;4266;48.816;9.154;2024-02-23T07:26:09;4.60;92.30
8459;DHT22;4266;48.816;9.154;2024-02-23T07:28:35;4.70;92.40
8459;DHT22;4266;48.816;9.154;2024-02-23T07:31:00;4.80;92.20
8459;DHT22;4266;48.816;9.154;2024-02-23T07:33:26;4.90;92.10
8459;DHT22;4266;48.816;9.154;2024-02-23T07:35:52;4.90;92.20
8459;DHT22;4266;48.816;9.154;2024-02-23T07:38:18;5.10;92.00
8459;DHT22;4266;48.816;9.154;2024-02-23T07:40:44;5.00;91.90
8459;DHT22;4266;48.816;9.154;2024-02-23T07:43:10;5.20;91.60
8459;DHT22;4266;48.816;9.154;2024-02-23T07:45:36;5.20;91.60
8459;DHT22;4266;48.816;9.154;2024-02-23T07:48:02;5.40;91.50
8459;DHT22;4266;48.816;9.154;2024-02-23T07:50:27;5.40;91.20
8459;DHT22;4266;48.816;9.154;2024-02-23T07:52:53;5.60;90.90
8459;DHT22;4266;48.816;9.154;2024-02-23T07:55:19;5.70;91.00
8459;DHT22;4266;48.816;9.154;2024-02-23T07:57:44;5.70;90.60
8459;DHT22;4266;48.816;9.154;2024-02-23T08:00:11;5.80;90.20
8459;DHT22;4266;48.816;9.154;2024-02-23T08:02:37;5.60;90.40
8459;DHT22;4266;48.816;9.154;2024-02-23T08:05:02;5.60;90.80
8459;DHT22;4266;48.816;9.154;2024-02-23T08:07:28;5.70;90.50
8459;DHT22;4266;48.816;9.154;2024-02-23T08:09:54;5.70;90.30
8459;DHT22;4266;48.816;9.154;2024-02-23T08:12:19;5.60;90.30
8459;DHT22;4266;48.816;9.154;2024-02-23T08:14:45;5.60;90.30
8459;DHT22;4266;48.816;9.154;2024-02-23T08:17:11;5.70;89.70
8459;DHT22;4266;48.816;9.154;2024-02-23T08:19:38;5.70;90.00
8459;DHT22;4266;48.816;9.154;2024-02-23T08:22:04;5.80;90.10
8459;DHT22;4266;48.816;9.154;2024-02-23T08:24:30;6.00;89.20
8459;DHT22;4266;48.816;9.154;2024-02-23T08:26:55;6.20;89.40
8459;DHT22;4266;48.816;9.154;2024-02-23T08:32:15;6.90;85.90
8459;DHT22;4266;48.816;9.154;2024-02-23T08:34:41;6.90;85.90
8459;DHT22;4266;48.816;9.154;2024-02-23T08:37:06;6.90;85.50
8459;DHT22;4266;48.816;9.154;2024-02-23T08:39:32;6.70;85.30
8459;DHT22;4266;48.816;9.154;2024-02-23T08:41:58;6.80;84.10
8459;DHT22;4266;48.816;9.154;2024-02-23T08:44:23;6.50;83.60
8459;DHT22;4266;48.816;9.154;2024-02-23T08:46:49;6.50;84.80
8459;DHT22;4266;48.816;9.154;2024-02-23T08:49:15;6.60;85.00
8459;DHT22;4266;48.816;9.154;2024-02-23T08:51:40;6.60;84.20
8459;DHT22;4266;48.816;9.154;2024-02-23T08:54:06;6.50;83.90
8459;DHT22;4266;48.816;9.154;2024-02-23T08:56:36;6.50;84.90
8459;DHT22;4266;48.816;9.154;2024-02-23T08:59:02;6.30;84.30
8459;DHT22;4266;48.816;9.154;2024-02-23T09:01:27;6.40;83.90
8459;DHT22;4266;48.816;9.154;2024-02-23T09:03:54;6.40;83.30
8459;DHT22;4266;48.816;9.154;2024-02-23T09:06:19;6.40;83.00
8459;DHT22;4266;48.816;9.154;2024-02-23T09:08:45;6.50;82.40
8459;DHT22;4266;48.816;9.154;2024-02-23T09:11:10;6.50;82.80
8459;DHT22;4266;48.816;9.154;2024-02-23T09:13:36;6.40;81.50
8459;DHT22;4266;48.816;9.154;2024-02-23T09:16:02;6.50;80.80
8459;DHT22;4266;48.816;9.154;2024-02-23T09:18:28;6.40;80.50
8459;DHT22;4266;48.816;9.154;2024-02-23T09:20:53;6.50;80.10
8459;DHT22;4266;48.816;9.154;2024-02-23T09:23:19;6.40;79.70
8459;DHT22;4266;48.816;9.154;2024-02-23T09:25:45;6.50;79.10
8459;DHT22;4266;48.816;9.154;2024-02-23T09:28:10;6.70;79.30
8459;DHT22;4266;48.816;9.154;2024-02-23T09:30:37;6.90;78.90
8459;DHT22;4266;48.816;9.154;2024-02-23T09:33:03;6.90;78.70
8459;DHT22;4266;48.816;9.154;2024-02-23T09:35:29;6.90;77.00
8459;DHT22;4266;48.816;9.154;2024-02-23T09:37:55;6.90;77.00
8459;DHT22;4266;48.816;9.154;2024-02-23T09:40:20;7.00;76.90
8459;DHT22;4266;48.816;9.154;2024-02-23T09:42:55;7.40;77.00
8459;DHT22;4266;48.816;9.154;2024-02-23T09:45:15;7.70;75.70
8459;DHT22;4266;48.816;9.154;2024-02-23T09:47:40;7.60;75.00
8459;DHT22;4266;48.816;9.154;2024-02-23T09:50:07;8.60;73.90
8459;DHT22;4266;48.816;9.154;2024-02-23T09:52:33;9.40;71.70
8459;DHT22;4266;48.816;9.154;2024-02-23T09:55:00;10.40;67.00
8459;DHT22;4266;48.816;9.154;2024-02-23T09:57:26;10.60;65.70
8459;DHT22;4266;48.816;9.154;2024-02-23T09:59:51;10.40;63.10
8459;DHT22;4266;48.816;9.154;2024-02-23T10:02:17;10.40;63.20
8459;DHT22;4266;48.816;9.154;2024-02-23T10:04:43;10.60;60.50
8459;DHT22;4266;48.816;9.154;2024-02-23T10:07:09;10.60;60.40
8459;DHT22;4266;48.816;9.154;2024-02-23T10:09:35;10.30;59.90
8459;DHT22;4266;48.816;9.154;2024-02-23T10:12:01;10.00;58.30
8459;DHT22;4266;48.816;9.154;2024-02-23T10:17:11;9.60;59.60
8459;DHT22;4266;48.816;9.154;2024-02-23T10:19:37;9.60;59.30
8459;DHT22;4266;48.816;9.154;2024-02-23T10:22:04;8.90;60.40
8459;DHT22;4266;48.816;9.154;2024-02-23T10:24:29;8.90;60.40
8459;DHT22;4266;48.816;9.154;2024-02-23T10:26:55;8.60;60.20
8459;DHT22;4266;48.816;9.154;2024-02-23T10:29:20;8.10;60.70
8459;DHT22;4266;48.816;9.154;2024-02-23T10:31:47;8.10;61.60
8459;DHT22;4266;48.816;9.154;2024-02-23T10:34:13;8.20;60.80
8459;DHT22;4266;48.816;9.154;2024-02-23T10:36:41;7.80;60.40
8459;DHT22;4266;48.816;9.154;2024-02-23T10:39:06;7.80;60.30
8459;DHT22;4266;48.816;9.154;2024-02-23T10:41:33;7.90;61.40
8459;DHT22;4266;48.816;9.154;2024-02-23T10:43:57;8.30;62.10
8459;DHT22;4266;48.816;9.154;2024-02-23T10:46:23;9.10;60.20
8459;DHT22;4266;48.816;9.154;2024-02-23T10:48:49;10.40;58.70
8459;DHT22;4266;48.816;9.154;2024-02-23T10:51:15;11.20;57.40
8459;DHT22;4266;48.816;9.154;2024-02-23T10:53:40;11.30;56.80
8459;DHT22;4266;48.816;9.154;2024-02-23T10:56:07;11.40;55.40
8459;DHT22;4266;48.816;9.154;2024-02-23T10:58:32;11.30;55.40
8459;DHT22;4266;48.816;9.154;2024-02-23T11:00:59;11.80;54.60
8459;DHT22;4266;48.816;9.154;2024-02-23T11:03:24;11.80;54.60
8459;DHT22;4266;48.816;9.154;2024-02-23T11:05:50;10.80;54.40
8459;DHT22;4266;48.816;9.154;2024-02-23T11:11:13;10.90;54.10
8459;DHT22;4266;48.816;9.154;2024-02-23T11:13:39;10.80;54.00
8459;DHT22;4266;48.816;9.154;2024-02-23T11:16:06;10.60;54.90
8459;DHT22;4266;48.816;9.154;2024-02-23T11:18:31;11.10;54.40
8459;DHT22;4266;48.816;9.154;2024-02-23T11:20:59;10.30;54.10
8459;DHT22;4266;48.816;9.154;2024-02-23T11:23:24;9.80;55.60
8459;DHT22;4266;48.816;9.154;2024-02-23T11:25:59;9.50;55.60
8459;DHT22;4266;48.816;9.154;2024-02-23T11:28:24;9.30;55.70
8459;DHT22;4266;48.816;9.154;2024-02-23T11:30:50;9.10;56.30
8459;DHT22;4266;48.816;9.154;2024-02-23T11:33:15;9.10;56.10
8459;DHT22;4266;48.816;9.154;2024-02-23T11:35:46;9.10;56.20
8459;DHT22;4266;48.816;9.154;2024-02-23T11:38:07;9.00;56.20
8459;DHT22;4266;48.816;9.154;2024-02-23T11:40:32;9.00;56.40
8459;DHT22;4266;48.816;9.154;2024-02-23T11:42:58;8.90;56.00
8459;DHT22;4266;48.816;9.154;2024-02-23T11:45:24;9.00;56.30
8459;DHT22;4266;48.816;9.154;2024-02-23T11:47:50;8.80;56.00
8459;DHT22;4266;48.816;9.154;2024-02-23T11:50:16;8.80;56.00
8459;DHT22;4266;48.816;9.154;2024-02-23T11:52:41;8.80;56.30
8459;DHT22;4266;48.816;9.154;2024-02-23T11:55:07;8.60;55.90
8459;DHT22;4266;48.816;9.154;2024-02-23T11:57:34;8.50;55.90
8459;DHT22;4266;48.816;9.154;2024-02-23T12:00:01;8.40;56.50
8459;DHT22;4266;48.816;9.154;2024-02-23T12:02:26;8.30;56.40
8459;DHT22;4266;48.816;9.154;2024-02-23T12:07:49;8.70;56.20
8459;DHT22;4266;48.816;9.154;2024-02-23T12:10:15;8.60;56.20
8459;DHT22;4266;48.816;9.154;2024-02-23T12:12:41;8.50;56.10
8459;DHT22;4266;48.816;9.154;2024-02-23T12:15:08;8.60;56.40
8459;DHT22;4266;48.816;9.154;2024-02-23T12:17:48;8.60;56.20
8459;DHT22;4266;48.816;9.154;2024-02-23T12:20:13;8.50;56.10
8459;DHT22;4266;48.816;9.154;2024-02-23T12:22:40;8.50;56.10
8459;DHT22;4266;48.816;9.154;2024-02-23T12:25:06;8.50;55.80
8459;DHT22;4266;48.816;9.154;2024-02-23T12:27:33;8.80;55.80
8459;DHT22;4266;48.816;9.154;2024-02-23T12:29:59;8.80;55.80
8459;DHT22;4266;48.816;9.154;2024-02-23T12:32:26;8.90;56.30
8459;DHT22;4266;48.816;9.154;2024-02-23T12:34:52;9.10;56.20
8459;DHT22;4266;48.816;9.154;2024-02-23T12:37:18;9.10;56.20
8459;DHT22;4266;48.816;9.154;2024-02-23T12:39:44;9.10;55.80
8459;DHT22;4266;48.816;9.154;2024-02-23T12:42:10;8.70;55.60
8459;DHT22;4266;48.816;9.154;2024-02-23T12:44:35;8.70;55.60
8459;DHT22;4266;48.816;9.154;2024-02-23T12:47:01;8.90;56.30
8459;DHT22;4266;48.816;9.154;2024-02-23T12:49:27;9.00;56.10
8459;DHT22;4266;48.816;9.154;2024-02-23T12:51:53;8.90;56.10
8459;DHT22;4266;48.816;9.154;2024-02-23T12:54:18;8.60;55.70
8459;DHT22;4266;48.816;9.154;2024-02-23T12:56:44;8.60;56.10
8459;DHT22;4266;48.816;9.154;2024-02-23T12:59:10;8.70;56.50
8459;DHT22;4266;48.816;9.154;2024-02-23T13:01:36;8.70;56.50
8459;DHT22;4266;48.816;9.154;2024-02-23T13:04:03;8.60;55.60
8459;DHT22;4266;48.816;9.154;2024-02-23T13:06:29;8.60;55.60
8459;DHT22;4266;48.816;9.154;2024-02-23T13:08:55;8.70;56.40
8459;DHT22;4266;48.816;9.154;2024-02-23T13:11:22;8.90;56.10
8459;DHT22;4266;48.816;9.154;2024-02-23T13:13:48;8.90;55.70
8459;DHT22;4266;48.816;9.154;2024-02-23T13:16:14;8.90;55.70
8459;DHT22;4266;48.816;9.154;2024-02-23T13:18:40;9.30;56.10
8459;DHT22;4266;48.816;9.154;2024-02-23T13:21:06;9.20;56.10
8459;DHT22;4266;48.816;9.154;2024-02-23T13:23:32;9.20;56.10
8459;DHT22;4266;48.816;9.154;2024-02-23T13:25:58;8.80;56.50
8459;DHT22;4266;48.816;9.154;2024-02-23T13:28:24;8.80;56.50
8459;DHT22;4266;48.816;9.154;2024-02-23T13:30:51;9.00;57.20
8459;DHT22;4266;48.816;9.154;2024-02-23T13:33:17;9.00;56.30
8459;DHT22;4266;48.816;9.154;2024-02-23T13:35:43;9.00;56.30
8459;DHT22;4266;48.816;9.154;2024-02-23T13:38:09;8.80;56.30
8459;DHT22;4266;48.816;9.154;2024-02-23T13:40:36;8.90;56.30
8459;DHT22;4266;48.816;9.154;2024-02-23T13:43:01;8.90;56.10
8459;DHT22;4266;48.816;9.154;2024-02-23T13:45:27;8.90;56.10
8459;DHT22;4266;48.816;9.154;2024-02-23T13:47:56;8.70;56.20
8459;DHT22;4266;48.816;9.154;2024-02-23T13:50:21;8.70;56.20
8459;DHT22;4266;48.816;9.154;2024-02-23T13:52:48;8.80;57.30
8459;DHT22;4266;48.816;9.154;2024-02-23T13:55:13;8.80;57.00
8459;DHT22;4266;48.816;9.154;2024-02-23T13:57:39;8.90;56.70
8459;DHT22;4266;48.816;9.154;2024-02-23T14:00:05;8.90;56.80
8459;DHT22;4266;48.816;9.154;2024-02-23T14:02:32;8.80;57.00
8459;DHT22;4266;48.816;9.154;2024-02-23T14:05:00;8.70;57.00
8459;DHT22;4266;48.816;9.154;2024-02-23T14:07:23;8.60;57.10
8459;DHT22;4266;48.816;9.154;2024-02-23T14:09:49;8.60;57.40
8459;DHT22;4266;48.816;9.154;2024-02-23T14:12:15;8.60;57.40
8459;DHT22;4266;48.816;9.154;2024-02-23T14:14:41;8.60;56.80
8459;DHT22;4266;48.816;9.154;2024-02-23T14:17:08;8.80;56.90
8459;DHT22;4266;48.816;9.154;2024-02-23T14:19:33;8.90;57.00
8459;DHT22;4266;48.816;9.154;2024-02-23T14:21:59;9.20;56.70
8459;DHT22;4266;48.816;9.154;2024-02-23T14:24:26;8.80;57.20
8459;DHT22;4266;48.816;9.154;2024-02-23T14:26:51;8.80;57.20
8459;DHT22;4266;48.816;9.154;2024-02-23T14:29:17;8.80;57.20
8459;DHT22;4266;48.816;9.154;2024-02-23T14:31:43;8.80;57.00
8459;DHT22;4266;48.816;9.154;2024-02-23T14:34:08;8.70;57.30
8459;DHT22;4266;48.816;9.154;2024-02-23T14:36:34;8.80;57.30
8459;DHT22;4266;48.816;9.154;2024-02-23T14:39:00;8.90;57.50
8459;DHT22;4266;48.816;9.154;2024-02-23T14:41:26;8.70;57.50
8459;DHT22;4266;48.816;9.154;2024-02-23T14:43:52;8.70;57.50
8459;DHT22;4266;48.816;9.154;2024-02-23T14:46:18;8.80;57.10
8459;DHT22;4266;48.816;9.154;2024-02-23T14:48:43;8.80;57.30
8459;DHT22;4266;48.816;9.154;2024-02-23T14:51:09;8.90;57.30
8459;DHT22;4266;48.816;9.154;2024-02-23T14:53:35;9.00;57.10
8459;DHT22;4266;48.816;9.154;2024-02-23T14:56:00;9.00;57.20
8459;DHT22;4266;48.816;9.154;2024-02-23T14:58:26;8.90;57.10
8459;DHT22;4266;48.816;9.154;2024-02-23T15:00:52;8.80;57.10
8459;DHT22;4266;48.816;9.154;2024-02-23T15:03:17;8.90;57.30
8459;DHT22;4266;48.816;9.154;2024-02-23T15:05:43;8.60;56.90
8459;DHT22;4266;48.816;9.154;2024-02-23T15:08:09;8.60;57.20
8459;DHT22;4266;48.816;9.154;2024-02-23T15:10:34;8.60;57.40
8459;DHT22;4266;48.816;9.154;2024-02-23T15:13:00;8.70;57.50
8459;DHT22;4266;48.816;9.154;2024-02-23T15:15:26;8.70;57.30
8459;DHT22;4266;48.816;9.154;2024-02-23T15:17:51;8.60;57.20
8459;DHT22;4266;48.816;9.154;2024-02-23T15:20:17;8.50;57.20
8459;DHT22;4266;48.816;9.154;2024-02-23T15:22:43;8.50;57.40
8459;DHT22;4266;48.816;9.154;2024-02-23T15:25:09;8.50;57.40
8459;DHT22;4266;48.816;9.154;2024-02-23T15:27:35;8.40;56.80
8459;DHT22;4266;48.816;9.154;2024-02-23T15:30:00;8.40;56.40
8459;DHT22;4266;48.816;9.154;2024-02-23T15:32:26;8.40;56.60
8459;DHT22;4266;48.816;9.154;2024-02-23T15:34:51;8.30;56.90
8459;DHT22;4266;48.816;9.154;2024-02-23T15:37:17;8.30;57.20
8459;DHT22;4266;48.816;9.154;2024-02-23T15:39:43;8.40;57.30
8459;DHT22;4266;48.816;9.154;2024-02-23T15:42:09;8.40;57.70
8459;DHT22;4266;48.816;9.154;2024-02-23T15:44:35;8.40;57.70
8459;DHT22;4266;48.816;9.154;2024-02-23T15:47:00;8.30;57.80
8459;DHT22;4266;48.816;9.154;2024-02-23T15:49:26;8.30;57.90
8459;DHT22;4266;48.816;9.154;2024-02-23T15:51:52;8.30;58.00
8459;DHT22;4266;48.816;9.154;2024-02-23T15:54:17;8.30;57.90
8459;DHT22;4266;48.816;9.154;2024-02-23T15:56:43;8.20;61.10
8459;DHT22;4266;48.816;9.154;2024-02-23T15:59:09;8.20;60.80
8459;DHT22;4266;48.816;9.154;2024-02-23T16:01:35;8.20;59.30
8459;DHT22;4266;48.816;9.154;2024-02-23T16:04:00;8.20;62.50
8459;DHT22;4266;48.816;9.154;2024-02-23T16:06:26;8.20;64.50
8459;DHT22;4266;48.816;9.154;2024-02-23T16:08:52;8.40;61.90
8459;DHT22;4266;48.816;9.154;2024-02-23T16:11:17;8.50;62.70
8459;DHT22;4266;48.816;9.154;2024-02-23T16:13:43;8.50;63.60
8459;DHT22;4266;48.816;9.154;2024-02-23T16:16:10;8.20;65.20
8459;DHT22;4266;48.816;9.154;2024-02-23T16:18:36;7.80;64.80